Time;durP1;ratioP1;P1;durP2;ratioP2;P2;SDS_P1;SDS_P2;PMS_P1;PMS_P2;Temp;Humidity;BMP_temperature;BMP_pressure;BME280_temperature;BME280_humidity;BME280_pressure;Samples;Min_cycle;Max_cycle;Signal;HPM_P1;HPM_P2
2024/01/01 00:01:55;;;;;;;59.77;44.53;;;5.70;62.80;;;;;;5005081;28;20235;-61
2024/01/01 00:04:21;;;;;;;52.20;39.77;;;5.80;63.40;;;;;;5014673;28;20294;-61
2024/01/01 00:06:48;;;;;;;43.30;31.73;;;5.70;63.00;;;;;;5006347;28;20734;-61
2024/01/01 00:09:14;;;;;;;40.60;32.10;;;5.70;62.80;;;;;;5003726;28;20315;-61
2024/01/01 00:11:40;;;;;;;40.87;29.57;;;5.70;62.10;;;;;;5011483;28;20732;-60
2024/01/01 00:14:07;;;;;;;31.23;25.67;;;5.70;62.30;;;;;;5011421;28;20245;-59
2024/01/01 00:16:33;;;;;;;33.37;25.13;;;5.70;62.50;;;;;;5000680;28;20741;-61
2024/01/01 00:19:00;;;;;;;30.87;22.93;;;5.60;62.60;;;;;;5014468;28;20214;-61
2024/01/01 00:21:27;;;;;;;32.47;26.47;;;5.60;62.50;;;;;;5006315;28;20239;-61
2024/01/01 00:23:53;;;;;;;33.23;26.83;;;5.70;62.80;;;;;;5002090;28;20558;-61
2024/01/01 00:26:20;;;;;;;38.43;28.80;;;5.70;63.30;;;;;;5012692;28;20259;-61
2024/01/01 00:28:46;;;;;;;45.57;31.43;;;5.70;62.30;;;;;;5011178;28;20738;-61
2024/01/01 00:31:13;;;;;;;41.77;30.80;;;5.60;62.40;;;;;;5014019;28;20208;-61
2024/01/01 00:33:39;;;;;;;36.80;27.23;;;5.60;62.80;;;;;;5014711;28;20248;-59
2024/01/01 00:36:06;;;;;;;32.03;23.40;;;5.60;63.20;;;;;;5015634;28;20282;-61
2024/01/01 00:38:32;;;;;;;28.03;22.70;;;5.60;62.90;;;;;;5015196;28;20737;-61
2024/01/01 00:40:59;;;;;;;30.57;22.60;;;5.70;62.90;;;;;;5015907;28;20254;-61
2024/01/01 00:43:25;;;;;;;25.67;19.30;;;5.60;62.30;;;;;;5010581;28;20683;-61
2024/01/01 00:45:52;;;;;;;19.77;15.87;;;5.70;62.10;;;;;;5011218;28;20232;-59
2024/01/01 00:48:18;;;;;;;19.67;14.90;;;5.60;62.30;;;;;;5009574;28;20245;-61
2024/01/01 00:50:45;;;;;;;17.47;12.80;;;5.60;62.80;;;;;;5009507;28;20225;-61
2024/01/01 00:53:11;;;;;;;15.73;11.83;;;5.60;62.40;;;;;;5016772;28;20310;-61
2024/01/01 00:55:38;;;;;;;13.80;10.47;;;5.60;62.90;;;;;;5015991;28;20230;-61
2024/01/01 00:58:06;;;;;;;12.07;9.70;;;5.60;62.50;;;;;;5010320;28;20720;-60
2024/01/01 01:00:32;;;;;;;12.07;9.67;;;5.70;62.70;;;;;;5015655;28;20204;-61
2024/01/01 01:02:58;;;;;;;13.57;9.30;;;5.60;62.10;;;;;;5007811;28;20239;-61
2024/01/01 01:05:25;;;;;;;9.03;7.57;;;5.70;61.90;;;;;;5015290;28;20273;-61
2024/01/01 01:07:52;;;;;;;11.13;7.80;;;5.60;61.30;;;;;;5009673;28;20229;-60
2024/01/01 01:10:18;;;;;;;7.97;7.07;;;5.70;61.40;;;;;;5011465;28;20223;-60
2024/01/01 01:12:45;;;;;;;9.57;7.90;;;5.70;61.30;;;;;;5016533;28;20662;-61
2024/01/01 01:15:11;;;;;;;9.63;7.80;;;5.70;61.00;;;;;;5016580;28;20232;-60
2024/01/01 01:17:38;;;;;;;9.80;7.23;;;5.70;60.30;;;;;;5011214;28;20241;-61
2024/01/01 01:20:05;;;;;;;8.43;6.30;;;5.70;61.40;;;;;;5004810;28;20231;-60
2024/01/01 01:22:31;;;;;;;7.47;6.67;;;5.70;60.40;;;;;;5016210;28;20239;-61
2024/01/01 01:24:58;;;;;;;7.10;6.33;;;5.70;60.40;;;;;;5015679;28;20286;-61
2024/01/01 01:27:24;;;;;;;6.53;5.80;;;5.70;60.30;;;;;;5014726;28;20234;-61
2024/01/01 01:29:51;;;;;;;7.47;5.97;;;5.70;60.80;;;;;;5016018;28;20229;-61
2024/01/01 01:32:17;;;;;;;6.20;5.50;;;5.70;59.60;;;;;;5014916;28;20263;-60
2024/01/01 01:34:44;;;;;;;6.87;5.73;;;5.80;59.70;;;;;;5015051;28;20250;-61
2024/01/01 01:37:11;;;;;;;6.63;5.60;;;5.70;59.90;;;;;;5008619;28;20305;-61
2024/01/01 01:39:37;;;;;;;5.33;4.87;;;5.70;59.70;;;;;;5008854;28;20213;-61
2024/01/01 01:42:04;;;;;;;6.77;5.27;;;5.70;59.80;;;;;;5008595;28;20221;-60
2024/01/01 01:44:30;;;;;;;7.33;5.13;;;5.70;60.10;;;;;;5015547;28;20237;-60
2024/01/01 01:46:57;;;;;;;5.63;5.17;;;5.70;61.20;;;;;;5011587;28;20273;-60
2024/01/01 01:49:23;;;;;;;5.93;5.33;;;5.70;59.20;;;;;;5015967;28;20218;-60
2024/01/01 01:51:49;;;;;;;6.53;5.70;;;5.70;59.60;;;;;;5015666;28;20242;-60
2024/01/01 01:54:16;;;;;;;6.47;5.37;;;5.70;59.10;;;;;;5010789;28;20632;-60
2024/01/01 01:56:42;;;;;;;5.90;4.97;;;5.70;60.10;;;;;;5002610;28;20283;-59
2024/01/01 01:59:09;;;;;;;6.67;4.83;;;5.70;60.30;;;;;;5013860;28;20266;-60
2024/01/01 02:01:35;;;;;;;5.80;5.20;;;5.70;59.70;;;;;;5014057;28;20200;-58
2024/01/01 02:04:02;;;;;;;5.07;4.53;;;5.70;59.90;;;;;;5015222;28;20245;-59
2024/01/01 02:06:28;;;;;;;4.40;3.93;;;5.70;61.00;;;;;;5013874;28;20260;-60
2024/01/01 02:08:55;;;;;;;5.03;3.93;;;5.70;60.60;;;;;;5014955;28;20234;-60
2024/01/01 02:11:22;;;;;;;5.13;4.63;;;5.70;59.90;;;;;;5007724;28;20263;-60
2024/01/01 02:13:49;;;;;;;4.13;3.83;;;5.70;60.30;;;;;;5013513;28;20214;-59
2024/01/01 02:16:15;;;;;;;4.47;4.07;;;5.70;59.60;;;;;;5013070;28;20227;-60
2024/01/01 02:18:42;;;;;;;4.60;4.03;;;5.60;59.90;;;;;;5013897;28;20199;-60
2024/01/01 02:21:09;;;;;;;3.93;3.53;;;5.60;59.50;;;;;;5013403;28;20204;-58
2024/01/01 02:23:35;;;;;;;4.73;4.07;;;5.60;59.70;;;;;;5013808;28;20243;-58
2024/01/01 02:26:02;;;;;;;4.70;4.20;;;5.60;59.80;;;;;;5012787;28;20258;-56
2024/01/01 02:28:28;;;;;;;4.47;3.37;;;5.50;60.10;;;;;;5010726;28;20204;-56
2024/01/01 02:30:54;;;;;;;3.80;3.50;;;5.50;59.50;;;;;;5009425;28;20250;-60
2024/01/01 02:33:21;;;;;;;4.60;3.80;;;5.50;60.20;;;;;;5013075;28;20281;-60
2024/01/01 02:35:47;;;;;;;4.40;3.13;;;5.50;61.00;;;;;;5014961;28;20258;-60
2024/01/01 02:38:14;;;;;;;3.50;3.20;;;5.50;59.50;;;;;;5013419;28;20239;-60
2024/01/01 02:40:40;;;;;;;3.57;3.27;;;5.50;59.20;;;;;;5007633;28;20648;-60
2024/01/01 02:43:07;;;;;;;5.23;3.63;;;5.50;59.70;;;;;;5013767;28;20234;-60
2024/01/01 02:45:33;;;;;;;3.57;3.27;;;5.50;60.90;;;;;;5007021;28;20250;-60
2024/01/01 02:48:00;;;;;;;3.50;3.20;;;5.40;59.70;;;;;;5007977;28;20214;-60
2024/01/01 02:50:26;;;;;;;3.70;3.40;;;5.40;61.30;;;;;;5010250;28;20614;-60
2024/01/01 02:52:53;;;;;;;6.03;3.93;;;5.30;59.50;;;;;;5014058;28;20210;-60
2024/01/01 02:55:19;;;;;;;3.50;3.20;;;5.30;59.70;;;;;;5013796;28;20229;-59
2024/01/01 02:57:46;;;;;;;3.23;2.80;;;5.40;59.40;;;;;;5011706;28;20238;-60
2024/01/01 03:00:14;;;;;;;3.37;3.07;;;5.30;59.30;;;;;;5005900;28;20203;-60
2024/01/01 03:02:41;;;;;;;3.33;3.00;;;5.40;58.70;;;;;;5011518;28;20215;-60
2024/01/01 03:05:07;;;;;;;4.53;3.10;;;5.30;59.30;;;;;;5011572;28;20251;-60
2024/01/01 03:07:34;;;;;;;3.80;3.10;;;5.30;59.30;;;;;;5011883;28;20230;-60
2024/01/01 03:10:00;;;;;;;3.90;2.80;;;5.30;58.20;;;;;;5012479;28;20232;-60
2024/01/01 03:12:27;;;;;;;3.43;3.13;;;5.30;58.20;;;;;;5008067;28;20238;-59
2024/01/01 03:14:53;;;;;;;4.93;3.20;;;5.30;58.30;;;;;;5015928;28;20682;-60
2024/01/01 03:17:20;;;;;;;4.10;2.80;;;5.30;59.30;;;;;;5007270;28;20210;-60
2024/01/01 03:19:46;;;;;;;3.03;2.83;;;5.30;57.80;;;;;;5014580;28;20651;-59
2024/01/01 03:22:12;;;;;;;4.53;3.23;;;5.20;57.50;;;;;;5015364;28;20292;-58
2024/01/01 03:24:39;;;;;;;3.57;3.27;;;5.20;58.10;;;;;;5016482;28;20324;-60
2024/01/01 03:27:05;;;;;;;3.40;3.10;;;5.20;58.90;;;;;;5015006;28;20574;-60
2024/01/01 03:29:32;;;;;;;6.03;3.30;;;5.20;58.20;;;;;;5017312;28;20234;-60
2024/01/01 03:31:58;;;;;;;4.03;3.50;;;5.20;58.50;;;;;;5016105;28;20246;-59
2024/01/01 03:34:25;;;;;;;3.53;3.23;;;5.20;58.60;;;;;;5013336;28;20656;-60
2024/01/01 03:36:51;;;;;;;4.07;3.10;;;5.20;58.40;;;;;;5009302;28;20254;-60
2024/01/01 03:39:18;;;;;;;4.70;3.30;;;5.30;57.30;;;;;;5017222;28;20245;-60
2024/01/01 03:41:44;;;;;;;5.60;3.33;;;5.30;57.10;;;;;;5016879;28;20591;-59
2024/01/01 03:44:12;;;;;;;3.50;3.20;;;5.20;58.20;;;;;;5017573;28;20213;-60
2024/01/01 03:46:38;;;;;;;4.30;3.90;;;5.10;57.90;;;;;;5016903;28;20258;-59
2024/01/01 03:49:05;;;;;;;4.20;3.10;;;5.10;58.40;;;;;;5009636;28;20236;-60
2024/01/01 03:51:31;;;;;;;3.40;3.10;;;5.20;58.40;;;;;;5010601;28;20223;-60
2024/01/01 03:53:58;;;;;;;5.60;3.33;;;5.10;57.20;;;;;;5012355;28;20213;-60
2024/01/01 03:56:25;;;;;;;3.90;3.50;;;5.10;57.30;;;;;;5013668;28;20229;-60
2024/01/01 03:58:51;;;;;;;4.90;3.67;;;5.10;57.60;;;;;;5006217;28;20228;-60
2024/01/01 04:01:18;;;;;;;5.20;3.33;;;5.10;57.60;;;;;;5015672;28;20203;-60
2024/01/01 04:03:44;;;;;;;3.47;3.13;;;5.10;57.80;;;;;;5012344;28;20258;-60
2024/01/01 04:06:11;;;;;;;3.80;3.40;;;5.10;57.30;;;;;;5016920;28;20725;-60
2024/01/01 04:08:37;;;;;;;4.17;3.50;;;5.10;57.50;;;;;;5014731;28;20208;-60
2024/01/01 04:11:04;;;;;;;3.77;3.07;;;5.10;57.50;;;;;;5009083;28;20723;-60
2024/01/01 04:13:30;;;;;;;3.90;3.30;;;5.10;57.50;;;;;;5016331;28;20254;-61
2024/01/01 04:15:57;;;;;;;3.83;3.00;;;5.00;58.10;;;;;;5011428;28;20287;-60
2024/01/01 04:18:24;;;;;;;4.83;3.30;;;5.00;58.30;;;;;;5017322;28;20207;-60
2024/01/01 04:20:50;;;;;;;4.73;3.47;;;5.00;59.10;;;;;;5016874;28;20254;-59
2024/01/01 04:23:17;;;;;;;3.87;3.13;;;4.90;59.00;;;;;;5017767;28;20207;-60
2024/01/01 04:25:43;;;;;;;3.63;2.87;;;4.90;59.00;;;;;;5016246;28;20255;-60
2024/01/01 04:28:10;;;;;;;5.93;3.50;;;4.90;58.70;;;;;;5015501;28;20242;-60
2024/01/01 04:30:36;;;;;;;3.97;3.17;;;4.90;58.20;;;;;;5013855;28;20250;-60
2024/01/01 04:33:03;;;;;;;4.60;3.20;;;4.90;58.80;;;;;;5016997;28;20266;-60
2024/01/01 04:35:30;;;;;;;3.07;2.80;;;5.00;58.80;;;;;;5018017;28;20263;-60
2024/01/01 04:37:56;;;;;;;4.67;2.80;;;4.90;57.50;;;;;;5017792;28;20207;-62
2024/01/01 04:40:23;;;;;;;3.30;2.70;;;5.00;57.40;;;;;;5014511;28;20341;-59
2024/01/01 04:42:50;;;;;;;4.60;2.80;;;4.90;58.10;;;;;;5015549;28;20234;-60
2024/01/01 04:45:16;;;;;;;3.03;2.80;;;4.90;57.50;;;;;;5013905;28;20273;-60
2024/01/01 04:47:43;;;;;;;3.27;2.97;;;5.00;57.20;;;;;;5007808;28;20210;-59
2024/01/01 04:50:10;;;;;;;3.00;2.67;;;5.00;57.40;;;;;;5016491;28;20265;-60
2024/01/01 04:52:36;;;;;;;3.07;2.63;;;5.00;57.20;;;;;;5016567;28;20226;-60
2024/01/01 04:55:03;;;;;;;2.90;2.57;;;5.00;56.80;;;;;;5016383;28;20228;-60
2024/01/01 04:57:29;;;;;;;3.10;2.80;;;5.10;56.80;;;;;;5008902;28;20212;-60
2024/01/01 04:59:56;;;;;;;3.37;3.07;;;5.10;57.90;;;;;;5007383;28;20230;-60
2024/01/01 05:02:22;;;;;;;3.50;2.60;;;5.00;56.70;;;;;;5015419;28;20218;-60
2024/01/01 05:04:49;;;;;;;2.90;2.70;;;5.00;55.70;;;;;;5015203;28;20199;-60
2024/01/01 05:07:15;;;;;;;3.43;3.10;;;5.10;57.50;;;;;;5014814;28;20207;-60
2024/01/01 05:09:42;;;;;;;4.03;2.70;;;5.00;56.50;;;;;;5015877;28;20258;-60
2024/01/01 05:12:08;;;;;;;5.20;2.87;;;5.00;57.70;;;;;;5015275;28;20259;-57
2024/01/01 05:14:35;;;;;;;2.90;2.60;;;5.00;56.50;;;;;;5014929;28;20702;-60
2024/01/01 05:17:01;;;;;;;3.97;2.73;;;5.00;57.00;;;;;;5012243;28;20211;-60
2024/01/01 05:19:28;;;;;;;3.77;3.00;;;4.90;56.80;;;;;;5007942;28;20666;-60
2024/01/01 05:21:54;;;;;;;2.70;2.50;;;4.90;56.60;;;;;;5016147;28;20261;-60
2024/01/01 05:24:21;;;;;;;2.93;2.70;;;4.90;58.20;;;;;;5014891;28;20246;-60
2024/01/01 05:26:47;;;;;;;4.23;2.70;;;4.90;57.80;;;;;;5014508;28;20237;-60
2024/01/01 05:29:14;;;;;;;2.43;2.23;;;4.90;57.10;;;;;;5015462;28;20641;-59
2024/01/01 05:31:40;;;;;;;3.40;2.20;;;5.00;57.30;;;;;;5013638;28;20255;-60
2024/01/01 05:34:07;;;;;;;2.97;2.47;;;4.90;57.10;;;;;;5009185;28;20246;-59
2024/01/01 05:36:33;;;;;;;2.87;2.23;;;4.90;56.80;;;;;;5013745;28;20607;-58
2024/01/01 05:39:00;;;;;;;3.73;2.30;;;5.10;56.00;;;;;;5013679;28;20234;-59
2024/01/01 05:41:26;;;;;;;3.00;2.70;;;5.20;55.70;;;;;;5014253;28;20224;-58
2024/01/01 05:43:53;;;;;;;3.17;2.87;;;5.30;55.00;;;;;;5015335;28;20232;-59
2024/01/01 05:46:19;;;;;;;3.13;2.70;;;5.30;55.30;;;;;;5005327;28;20233;-59
2024/01/01 05:48:46;;;;;;;2.67;2.47;;;5.40;56.40;;;;;;5012967;28;20675;-59
2024/01/01 05:51:12;;;;;;;2.57;2.37;;;5.40;55.50;;;;;;5011930;28;20294;-60
2024/01/01 05:53:39;;;;;;;2.57;2.37;;;5.40;55.50;;;;;;5014915;28;20426;-58
2024/01/01 05:56:05;;;;;;;4.10;2.40;;;5.40;55.50;;;;;;5015192;28;20299;-58
2024/01/01 05:58:32;;;;;;;3.10;2.40;;;5.50;55.10;;;;;;5011264;28;20199;-60
2024/01/01 06:00:58;;;;;;;2.37;2.13;;;5.40;55.10;;;;;;5011575;28;20737;-56
2024/01/01 06:03:25;;;;;;;3.53;2.60;;;5.40;55.30;;;;;;5014727;28;20235;-60
2024/01/01 06:05:53;;;;;;;2.30;2.10;;;5.40;55.50;;;;;;5015498;28;20231;-60
2024/01/01 06:08:19;;;;;;;2.33;2.17;;;5.40;56.00;;;;;;5012311;28;20220;-60
2024/01/01 06:10:46;;;;;;;2.80;2.60;;;5.40;55.60;;;;;;5015808;28;20224;-60
2024/01/01 06:13:12;;;;;;;2.40;2.20;;;5.40;56.40;;;;;;5015991;28;20254;-60
2024/01/01 06:15:39;;;;;;;2.13;2.03;;;5.30;56.10;;;;;;5009942;28;20254;-60
2024/01/01 06:18:05;;;;;;;2.70;2.50;;;5.40;57.20;;;;;;5011956;28;20204;-60
2024/01/01 06:20:32;;;;;;;2.60;2.40;;;5.40;56.30;;;;;;5015331;28;20596;-61
2024/01/01 06:22:58;;;;;;;3.03;2.50;;;5.50;56.50;;;;;;5016104;28;20239;-60
2024/01/01 06:25:25;;;;;;;3.00;2.60;;;5.50;56.40;;;;;;5011469;28;20262;-60
2024/01/01 06:27:51;;;;;;;2.77;2.30;;;5.50;56.40;;;;;;5014715;28;20242;-60
2024/01/01 06:30:18;;;;;;;2.63;2.23;;;5.50;56.20;;;;;;5011716;28;20227;-60
2024/01/01 06:32:44;;;;;;;3.20;2.90;;;5.60;56.20;;;;;;5011329;28;20258;-60
2024/01/01 06:35:11;;;;;;;2.87;2.40;;;5.50;56.20;;;;;;5013587;28;20256;-60
2024/01/01 06:37:37;;;;;;;2.60;2.40;;;5.50;56.30;;;;;;5011170;28;20247;-60
2024/01/01 06:40:04;;;;;;;2.63;2.43;;;5.50;56.60;;;;;;5011206;28;20203;-60
2024/01/01 06:42:31;;;;;;;2.77;2.47;;;5.50;56.60;;;;;;5008968;28;20346;-60
2024/01/01 06:44:58;;;;;;;3.07;2.77;;;5.60;56.70;;;;;;5014071;28;20263;-60
2024/01/01 06:47:24;;;;;;;2.60;2.40;;;5.50;57.20;;;;;;5016200;28;20254;-60
2024/01/01 06:49:51;;;;;;;2.40;2.20;;;5.60;57.10;;;;;;5016032;28;20242;-58
2024/01/01 06:52:18;;;;;;;2.60;2.40;;;5.60;56.40;;;;;;5007657;28;20254;-60
2024/01/01 06:54:44;;;;;;;2.40;2.13;;;5.50;56.30;;;;;;5013614;28;20204;-59
2024/01/01 06:57:10;;;;;;;2.50;2.30;;;5.50;56.60;;;;;;5006388;28;20254;-59
2024/01/01 06:59:37;;;;;;;2.57;2.37;;;5.50;56.40;;;;;;5011148;28;20247;-59
2024/01/01 07:02:03;;;;;;;3.03;2.73;;;5.60;56.70;;;;;;5007359;28;20637;-60
2024/01/01 07:04:30;;;;;;;2.70;2.50;;;5.50;56.50;;;;;;5009775;28;20245;-60
2024/01/01 07:06:57;;;;;;;2.23;2.13;;;5.50;56.80;;;;;;5014103;28;20660;-59
2024/01/01 07:09:23;;;;;;;2.20;2.00;;;5.40;56.50;;;;;;5016465;28;20250;-60
2024/01/01 07:11:50;;;;;;;3.93;2.20;;;5.40;56.40;;;;;;5010505;28;20643;-60
2024/01/01 07:14:17;;;;;;;2.80;2.43;;;5.40;56.60;;;;;;5011034;28;20208;-59
2024/01/01 07:16:43;;;;;;;2.43;2.20;;;5.40;56.30;;;;;;5009875;28;20259;-59
2024/01/01 07:19:10;;;;;;;3.13;2.20;;;5.40;56.70;;;;;;5006803;28;20681;-60
2024/01/01 07:21:36;;;;;;;2.37;2.17;;;5.40;56.40;;;;;;5010259;28;20226;-59
2024/01/01 07:24:03;;;;;;;2.67;2.47;;;5.40;56.00;;;;;;5014389;28;20239;-58
2024/01/01 07:26:29;;;;;;;2.43;2.20;;;5.50;56.20;;;;;;5013651;28;20784;-58
2024/01/01 07:28:57;;;;;;;2.30;2.10;;;5.50;56.40;;;;;;5015667;28;20207;-60
2024/01/01 07:31:23;;;;;;;3.33;2.20;;;5.50;56.40;;;;;;5012064;28;20599;-60
2024/01/01 07:33:50;;;;;;;4.63;2.50;;;5.40;56.40;;;;;;5009278;28;20248;-59
2024/01/01 07:36:16;;;;;;;3.10;2.27;;;5.40;56.20;;;;;;5003615;28;20313;-60
2024/01/01 07:38:43;;;;;;;3.80;2.30;;;5.40;56.60;;;;;;5011793;28;20685;-60
2024/01/01 07:41:09;;;;;;;2.77;2.50;;;5.40;56.80;;;;;;5005737;28;20376;-59
2024/01/01 07:43:36;;;;;;;3.67;2.40;;;5.40;57.20;;;;;;5008671;28;20216;-60
2024/01/01 07:46:03;;;;;;;2.73;2.30;;;5.40;56.60;;;;;;5004570;28;20305;-60
2024/01/01 07:48:29;;;;;;;2.97;2.40;;;5.40;56.50;;;;;;5006699;28;20266;-59
2024/01/01 07:50:56;;;;;;;2.20;2.10;;;5.30;56.90;;;;;;5008845;28;20239;-60
2024/01/01 07:53:29;;;;;;;4.10;2.30;;;5.30;56.90;;;;;;5003765;28;20930;-60
2024/01/01 07:55:56;;;;;;;3.10;2.30;;;5.30;56.80;;;;;;5001134;28;20233;-60
2024/01/01 07:58:23;;;;;;;3.30;2.23;;;5.30;56.70;;;;;;5002228;28;20223;-60
2024/01/01 08:00:50;;;;;;;3.53;3.10;;;5.40;57.00;;;;;;5006393;28;20250;-58
2024/01/01 08:03:19;;;;;;;4.10;2.40;;;5.40;56.60;;;;;;5026245;28;20239;-60
2024/01/01 08:05:45;;;;;;;2.80;2.60;;;5.40;56.60;;;;;;5031042;28;20223;-59
2024/01/01 08:08:12;;;;;;;4.67;2.10;;;5.40;56.30;;;;;;5029127;28;20237;-57
2024/01/01 08:10:38;;;;;;;3.67;3.27;;;5.40;56.50;;;;;;5026745;28;20221;-60
2024/01/01 08:13:05;;;;;;;3.87;2.70;;;5.40;56.90;;;;;;5030300;28;20231;-60
2024/01/01 08:15:31;;;;;;;3.17;2.60;;;5.50;56.00;;;;;;5019604;28;20770;-59
2024/01/01 08:17:58;;;;;;;2.70;2.50;;;5.60;56.40;;;;;;5031749;28;20256;-59
2024/01/01 08:20:24;;;;;;;2.40;1.90;;;5.70;56.40;;;;;;5029122;28;20226;-60
2024/01/01 08:22:51;;;;;;;2.53;2.33;;;5.70;55.90;;;;;;5032741;28;20271;-60
2024/01/01 08:25:17;;;;;;;4.37;3.23;;;5.80;55.40;;;;;;5022067;28;20322;-60
2024/01/01 08:27:44;;;;;;;2.93;2.50;;;6.00;55.50;;;;;;5027545;28;20730;-59
2024/01/01 08:30:10;;;;;;;3.93;2.50;;;6.10;54.10;;;;;;5029113;28;20208;-60
2024/01/01 08:32:37;;;;;;;6.13;2.43;;;6.40;53.80;;;;;;5030083;28;20250;-59
2024/01/01 08:35:04;;;;;;;4.27;2.50;;;6.70;52.90;;;;;;5023607;28;20677;-61
2024/01/01 08:37:30;;;;;;;3.40;2.60;;;7.20;53.60;;;;;;5021827;28;20213;-59
2024/01/01 08:39:57;;;;;;;3.27;2.53;;;7.50;50.00;;;;;;5017345;28;20315;-60
2024/01/01 08:42:23;;;;;;;4.97;3.17;;;7.80;49.50;;;;;;5025955;28;20229;-60
2024/01/01 08:44:50;;;;;;;4.73;2.30;;;7.80;49.10;;;;;;5030263;28;20574;-60
2024/01/01 08:47:16;;;;;;;3.10;2.00;;;8.10;48.40;;;;;;5030378;28;20304;-60
2024/01/01 08:49:43;;;;;;;2.20;2.07;;;8.30;48.00;;;;;;5026364;28;20234;-61
2024/01/01 08:52:09;;;;;;;3.10;2.00;;;8.20;47.80;;;;;;5017858;28;20740;-60
2024/01/01 08:54:36;;;;;;;2.70;2.37;;;8.40;47.60;;;;;;5018113;28;20287;-60
2024/01/01 08:57:03;;;;;;;2.33;2.03;;;8.30;47.80;;;;;;5020504;28;20209;-60
2024/01/01 08:59:29;;;;;;;2.73;2.10;;;8.80;47.30;;;;;;5021971;28;20804;-60
2024/01/01 09:01:56;;;;;;;3.17;2.03;;;8.90;47.00;;;;;;5008631;28;20238;-61
2024/01/01 09:04:22;;;;;;;3.03;2.23;;;8.90;44.60;;;;;;5016929;28;20879;-60
2024/01/01 09:06:49;;;;;;;4.83;2.33;;;8.90;46.60;;;;;;5016878;28;20230;-60
2024/01/01 09:09:15;;;;;;;4.60;2.00;;;8.90;44.90;;;;;;5026713;28;20701;-60
2024/01/01 09:11:43;;;;;;;2.93;2.07;;;8.90;45.30;;;;;;5022029;28;20225;-61
2024/01/01 09:14:10;;;;;;;4.27;2.30;;;9.10;44.70;;;;;;5025190;28;20214;-61
2024/01/01 09:16:36;;;;;;;2.97;2.50;;;9.30;44.20;;;;;;5030295;28;20250;-60
2024/01/01 09:19:03;;;;;;;2.50;2.30;;;9.50;43.60;;;;;;5026402;28;20703;-61
2024/01/01 09:21:29;;;;;;;3.20;2.03;;;9.60;42.90;;;;;;5012112;28;20241;-60
2024/01/01 09:24:00;;;;;;;4.67;2.50;;;9.80;43.20;;;;;;5014475;28;20676;-62
2024/01/01 09:26:27;;;;;;;3.60;2.47;;;9.90;43.20;;;;;;5025269;28;20232;-60
2024/01/01 09:28:53;;;;;;;2.87;2.20;;;10.10;43.60;;;;;;5031215;28;20217;-61
2024/01/01 09:31:20;;;;;;;3.43;2.10;;;10.10;41.40;;;;;;5032750;28;20233;-62
2024/01/01 09:33:46;;;;;;;2.30;1.80;;;10.40;40.30;;;;;;5028987;28;20250;-62
2024/01/01 09:36:13;;;;;;;2.57;1.80;;;10.40;40.20;;;;;;5020942;28;20248;-61
2024/01/01 09:38:40;;;;;;;1.80;1.70;;;10.30;40.20;;;;;;5022837;28;20865;-61
2024/01/01 09:41:07;;;;;;;5.13;1.90;;;10.40;42.10;;;;;;5021573;28;20283;-63
2024/01/01 09:43:33;;;;;;;4.67;2.03;;;10.50;40.30;;;;;;5025850;28;20205;-62
2024/01/01 09:46:00;;;;;;;3.87;1.70;;;10.60;39.80;;;;;;5026509;28;20256;-62
2024/01/01 09:48:26;;;;;;;2.40;1.73;;;10.40;40.50;;;;;;5022768;28;20205;-61
2024/01/01 09:50:53;;;;;;;2.93;2.00;;;10.90;39.60;;;;;;5019848;28;20226;-63
2024/01/01 09:53:19;;;;;;;1.97;1.37;;;11.00;40.10;;;;;;5029049;28;20242;-62
2024/01/01 09:55:46;;;;;;;2.90;1.70;;;10.90;38.70;;;;;;5018456;28;20260;-63
2024/01/01 09:58:12;;;;;;;1.93;1.70;;;11.20;39.30;;;;;;5019304;28;20253;-61
2024/01/01 10:00:39;;;;;;;3.40;1.63;;;11.10;39.50;;;;;;5030791;28;20682;-61
2024/01/01 10:03:05;;;;;;;3.13;1.50;;;11.40;39.00;;;;;;5026618;28;20207;-61
2024/01/01 10:05:32;;;;;;;3.43;1.60;;;11.30;38.90;;;;;;5026549;28;20292;-62
2024/01/01 10:07:58;;;;;;;1.70;1.60;;;10.10;38.70;;;;;;5033321;28;20650;-62
2024/01/01 10:10:25;;;;;;;2.13;1.60;;;9.90;42.30;;;;;;5028444;28;20215;-62
2024/01/01 10:12:52;;;;;;;3.87;1.80;;;10.10;40.00;;;;;;5030125;28;20255;-62
2024/01/01 10:15:18;;;;;;;2.90;1.80;;;10.00;41.50;;;;;;5026270;28;20223;-62
2024/01/01 10:17:45;;;;;;;3.37;1.67;;;9.50;42.50;;;;;;5026824;28;20275;-62
2024/01/01 10:20:12;;;;;;;3.57;1.67;;;9.40;42.60;;;;;;5025761;28;20256;-62
2024/01/01 10:22:39;;;;;;;5.10;2.10;;;9.10;42.80;;;;;;5034221;28;20205;-62
2024/01/01 10:25:05;;;;;;;3.47;1.90;;;9.10;43.70;;;;;;5026870;28;21093;-62
2024/01/01 10:27:32;;;;;;;3.10;1.80;;;9.00;42.80;;;;;;5030544;28;20251;-69
2024/01/01 10:29:58;;;;;;;2.60;1.70;;;8.80;43.60;;;;;;5024801;28;20207;-62
2024/01/01 10:32:25;;;;;;;2.33;1.60;;;9.10;44.70;;;;;;5019129;28;20319;-63
2024/01/01 10:34:51;;;;;;;2.87;1.70;;;8.80;44.50;;;;;;5035352;28;20242;-62
2024/01/01 10:37:19;;;;;;;2.70;1.77;;;8.80;44.30;;;;;;5031126;28;20587;-62
2024/01/01 10:39:46;;;;;;;3.60;1.80;;;8.50;44.40;;;;;;5030398;28;20203;-61
2024/01/01 10:42:12;;;;;;;3.47;1.93;;;8.80;44.50;;;;;;5021849;28;20220;-62
2024/01/01 10:44:39;;;;;;;4.47;2.07;;;8.70;44.40;;;;;;5035668;28;20380;-62
2024/01/01 10:47:05;;;;;;;2.10;1.90;;;8.80;45.70;;;;;;5034359;28;20251;-61
2024/01/01 10:49:32;;;;;;;1.73;1.63;;;8.70;45.00;;;;;;5036326;28;20272;-59
2024/01/01 10:51:58;;;;;;;3.47;2.20;;;8.50;46.90;;;;;;5036370;28;20227;-62
2024/01/01 10:54:25;;;;;;;2.83;1.73;;;8.30;45.70;;;;;;5038746;28;20233;-62
2024/01/01 10:56:51;;;;;;;2.43;1.90;;;8.30;47.80;;;;;;5035032;28;20230;-62
2024/01/01 10:59:18;;;;;;;2.30;2.10;;;8.00;48.40;;;;;;5032757;28;20207;-62
2024/01/01 11:01:44;;;;;;;2.40;1.70;;;7.70;48.10;;;;;;5038857;28;20279;-62
2024/01/01 11:04:11;;;;;;;4.03;2.27;;;7.70;49.10;;;;;;5036667;28;20241;-62
2024/01/01 11:06:39;;;;;;;3.17;1.70;;;7.90;50.70;;;;;;5037148;28;20253;-61
2024/01/01 11:09:05;;;;;;;4.17;1.60;;;7.90;48.60;;;;;;5035744;28;20202;-62
2024/01/01 11:11:32;;;;;;;3.20;1.97;;;7.80;49.90;;;;;;5035890;28;20297;-62
2024/01/01 11:13:58;;;;;;;3.60;1.90;;;7.90;49.80;;;;;;5037005;28;20267;-62
2024/01/01 11:16:26;;;;;;;3.33;1.77;;;7.80;49.80;;;;;;5038519;28;20279;-62
2024/01/01 11:18:52;;;;;;;1.70;1.60;;;7.60;49.60;;;;;;5033940;28;20208;-62
2024/01/01 11:21:19;;;;;;;2.17;1.70;;;8.30;49.80;;;;;;5023460;28;20233;-62
2024/01/01 11:23:45;;;;;;;2.07;1.87;;;10.40;44.90;;;;;;5012490;28;20306;-61
2024/01/01 11:26:12;;;;;;;1.93;1.73;;;11.50;39.00;;;;;;5012378;28;20233;-63
2024/01/01 11:28:38;;;;;;;2.50;1.60;;;12.00;37.80;;;;;;5020335;28;20644;-62
2024/01/01 11:31:05;;;;;;;2.43;1.53;;;12.10;38.20;;;;;;5015699;28;20211;-60
2024/01/01 11:33:32;;;;;;;3.23;1.60;;;11.40;41.10;;;;;;5012258;28;20830;-62
2024/01/01 11:35:58;;;;;;;1.50;1.40;;;11.40;39.30;;;;;;5016626;28;20251;-62
2024/01/01 11:38:25;;;;;;;1.90;1.57;;;11.10;40.50;;;;;;5012669;28;22537;-62
2024/01/01 11:40:51;;;;;;;2.00;1.37;;;11.00;40.60;;;;;;5009680;28;20282;-62
2024/01/01 11:43:18;;;;;;;1.53;1.30;;;10.80;40.60;;;;;;5017439;28;20230;-60
2024/01/01 11:45:44;;;;;;;2.03;1.40;;;11.00;41.00;;;;;;5008240;28;20223;-59
2024/01/01 11:48:11;;;;;;;1.40;1.30;;;11.20;39.80;;;;;;5012726;28;20292;-62
2024/01/01 11:50:37;;;;;;;3.70;1.50;;;11.20;41.90;;;;;;5017712;28;20234;-62
2024/01/01 11:53:04;;;;;;;3.10;1.87;;;11.40;39.50;;;;;;5010881;28;20328;-62
2024/01/01 11:55:30;;;;;;;2.30;1.57;;;11.20;39.50;;;;;;5009579;28;20356;-61
2024/01/01 11:57:57;;;;;;;1.60;1.50;;;11.20;41.00;;;;;;5006752;28;20795;-61
2024/01/01 12:00:24;;;;;;;2.87;1.70;;;11.40;39.10;;;;;;5019613;28;20279;-61
2024/01/01 12:02:51;;;;;;;2.30;1.63;;;11.00;39.30;;;;;;5011209;28;20230;-61
2024/01/01 12:05:17;;;;;;;2.33;1.83;;;11.00;41.00;;;;;;5013983;28;20300;-61
2024/01/01 12:07:43;;;;;;;2.50;1.70;;;10.70;40.20;;;;;;5011284;28;20281;-61
2024/01/01 12:10:10;;;;;;;3.10;2.00;;;10.50;40.70;;;;;;5008968;28;20289;-62
2024/01/01 12:12:37;;;;;;;3.27;2.00;;;10.30;40.20;;;;;;5012401;28;20251;-61
2024/01/01 12:15:03;;;;;;;2.77;1.70;;;10.20;40.60;;;;;;5008532;28;20375;-61
2024/01/01 12:17:29;;;;;;;3.33;2.40;;;9.80;42.10;;;;;;5007503;28;21950;-61
2024/01/01 12:19:56;;;;;;;2.50;1.80;;;9.80;42.10;;;;;;5010247;28;20232;-61
2024/01/01 12:22:24;;;;;;;2.57;1.83;;;10.10;41.70;;;;;;5018058;28;20289;-61
2024/01/01 12:24:50;;;;;;;2.90;1.77;;;10.00;41.20;;;;;;5013605;28;20206;-62
2024/01/01 12:27:17;;;;;;;3.07;2.07;;;9.80;42.90;;;;;;5011941;28;20216;-62
2024/01/01 12:29:43;;;;;;;3.37;2.47;;;9.30;44.90;;;;;;5009591;28;20225;-61
2024/01/01 12:32:10;;;;;;;3.17;1.80;;;9.30;43.80;;;;;;5007475;28;20743;-62
2024/01/01 12:34:37;;;;;;;2.83;2.13;;;8.80;44.90;;;;;;5011453;28;20300;-61
2024/01/01 12:37:03;;;;;;;4.50;2.33;;;8.70;46.50;;;;;;5013961;28;20212;-59
2024/01/01 12:39:30;;;;;;;5.00;2.43;;;8.40;47.40;;;;;;5025895;28;20670;-59
2024/01/01 12:41:56;;;;;;;3.47;2.00;;;8.60;46.20;;;;;;5013944;28;20240;-60
2024/01/01 12:44:23;;;;;;;2.93;2.00;;;8.60;46.30;;;;;;5031142;28;20242;-59
2024/01/01 12:46:50;;;;;;;1.93;1.80;;;8.50;45.90;;;;;;5024792;28;20234;-61
2024/01/01 12:49:16;;;;;;;4.07;2.10;;;8.50;45.80;;;;;;5028068;28;20203;-58